Time;durP1;ratioP1;P1;durP2;ratioP2;P2;SDS_P1;SDS_P2;PMS_P1;PMS_P2;Temp;Humidity;BMP_temperature;BMP_pressure;BME280_temperature;BME280_humidity;BME280_pressure;Samples;Min_cycle;Max_cycle;Signal;HPM_P1;HPM_P2
2023/08/05 00:01:44;;;;;;;21.60;20.50;;;;;;;-141.02;66.74;42555.66;5134838;27;20634;-62
2023/08/05 00:04:11;;;;;;;21.45;20.35;;;;;;;-141.02;66.91;42555.66;5134500;27;20241;-63
2023/08/05 00:06:38;;;;;;;21.70;20.60;;;;;;;-141.02;67.00;42572.94;5134599;27;20197;-63
2023/08/05 00:09:05;;;;;;;21.90;20.80;;;;;;;-141.02;67.32;42548.00;5134780;27;20695;-63
2023/08/05 00:11:32;;;;;;;22.10;21.00;;;;;;;-141.02;67.55;42571.03;5134335;27;20283;-63
2023/08/05 00:14:00;;;;;;;21.60;20.50;;;;;;;-141.02;67.79;42571.03;5134681;27;20228;-63
2023/08/05 00:16:27;;;;;;;21.80;20.70;;;;;;;-141.02;67.75;42546.06;5134243;27;20232;-63
2023/08/05 00:18:54;;;;;;;22.38;21.27;;;;;;;-141.02;67.90;42578.69;5134487;27;20260;-62
2023/08/05 00:21:21;;;;;;;20.45;19.45;;;;;;;-141.02;68.13;42590.22;5134144;27;20666;-63
2023/08/05 00:23:48;;;;;;;20.70;19.70;;;;;;;-141.02;68.42;42586.38;5134408;27;20231;-64
2023/08/05 00:26:16;;;;;;;21.88;20.77;;;;;;;-141.02;68.27;42578.69;5134428;27;20193;-66
2023/08/05 00:28:43;;;;;;;21.33;20.23;;;;;;;-141.02;68.49;42574.88;5133961;27;20555;-63
2023/08/05 00:31:11;;;;;;;21.35;20.25;;;;;;;-141.02;68.66;42571.03;5134409;27;20197;-62
2023/08/05 00:33:38;;;;;;;21.17;20.08;;;;;;;-141.02;68.48;42590.22;5134021;27;20196;-63
2023/08/05 00:36:05;;;;;;;21.48;20.38;;;;;;;-141.02;68.57;42582.53;5133880;27;20197;-63
2023/08/05 00:38:32;;;;;;;21.27;20.17;;;;;;;-141.02;68.89;42578.69;5134108;27;20706;-65
2023/08/05 00:40:59;;;;;;;20.98;19.88;;;;;;;-141.02;69.05;42582.53;5133799;27;20193;-63
2023/08/05 00:43:26;;;;;;;21.70;20.60;;;;;;;-141.02;69.10;42597.91;5133834;27;20648;-63
2023/08/05 00:45:53;;;;;;;21.77;20.67;;;;;;;-141.02;69.48;42578.69;5132818;27;20228;-64
2023/08/05 00:48:22;;;;;;;22.13;21.02;;;;;;;-141.02;69.72;42605.56;5133714;27;20192;-63
2023/08/05 00:50:49;;;;;;;21.33;20.23;;;;;;;-141.02;69.87;42594.06;5134273;27;20287;-63
2023/08/05 00:53:17;;;;;;;21.10;20.00;;;;;;;-141.02;70.05;42620.94;5133974;27;20193;-62
2023/08/05 00:55:44;;;;;;;21.58;20.48;;;;;;;-141.02;70.40;42605.56;5133944;27;20198;-62
2023/08/05 00:58:12;;;;;;;21.75;20.65;;;;;;;-141.02;70.24;42590.22;5133821;27;20265;-62
2023/08/05 01:00:39;;;;;;;21.27;20.17;;;;;;;-141.02;70.25;42605.56;5133410;27;20275;-63
2023/08/05 01:03:06;;;;;;;21.45;20.35;;;;;;;-141.02;70.86;42605.56;5133720;27;20192;-62
2023/08/05 01:05:36;;;;;;;21.40;20.30;;;;;;;-141.02;70.85;42609.41;5133289;27;20228;-63
2023/08/05 01:08:04;;;;;;;21.75;20.65;;;;;;;-141.02;71.33;42597.91;5133356;27;20220;-62
2023/08/05 01:10:31;;;;;;;21.52;20.42;;;;;;;-141.02;71.40;42597.91;5133584;27;20219;-62
2023/08/05 01:12:58;;;;;;;22.75;21.55;;;;;;;-141.02;71.42;42626.69;5133288;27;20253;-63
2023/08/05 01:15:25;;;;;;;21.83;20.73;;;;;;;-141.02;71.74;42592.13;5133475;27;20196;-62
2023/08/05 01:17:55;;;;;;;21.35;20.25;;;;;;;-141.02;71.46;42605.56;5133254;27;20196;-63
2023/08/05 01:20:27;;;;;;;21.08;19.98;;;;;;;-141.02;71.73;42617.09;5133389;27;20263;-62
2023/08/05 01:23:07;;;;;;;21.65;20.55;;;;;;;-141.02;71.59;42605.56;5133244;27;20188;-62
2023/08/05 01:25:37;;;;;;;22.20;21.10;;;;;;;-141.02;71.67;42617.09;5133098;27;20184;-62
2023/08/05 01:28:04;;;;;;;20.98;19.98;;;;;;;-141.02;71.80;42620.94;5133049;27;20188;-63
2023/08/05 01:30:32;;;;;;;20.67;19.67;;;;;;;-141.02;71.75;42609.41;5133045;27;20228;-62
2023/08/05 01:33:01;;;;;;;21.35;20.25;;;;;;;-141.02;72.02;42611.34;5133345;27;20252;-62
2023/08/05 01:35:28;;;;;;;21.00;19.95;;;;;;;-141.02;71.93;42584.47;5133327;27;20246;-63
2023/08/05 01:37:55;;;;;;;21.73;20.63;;;;;;;-141.02;72.19;42588.31;5132896;28;20193;-62
2023/08/05 01:40:27;;;;;;;20.95;19.95;;;;;;;-141.02;72.45;42605.56;5132895;28;20263;-62
2023/08/05 01:42:57;;;;;;;21.20;20.10;;;;;;;-141.02;72.93;42609.41;5133166;28;20185;-63
2023/08/05 01:45:24;;;;;;;21.15;20.05;;;;;;;-141.02;72.71;42620.94;5132699;27;20220;-62
2023/08/05 01:47:51;;;;;;;21.70;20.60;;;;;;;-141.02;72.96;42605.56;5133178;28;20223;-62
2023/08/05 01:50:18;;;;;;;21.40;20.30;;;;;;;-141.02;73.00;42619.00;5132889;28;20658;-63
2023/08/05 01:52:45;;;;;;;20.85;19.85;;;;;;;-141.02;73.26;42609.41;5133141;27;20196;-62
2023/08/05 01:55:12;;;;;;;20.65;19.65;;;;;;;-141.02;73.35;42605.56;5132800;27;20696;-62
2023/08/05 01:57:39;;;;;;;20.80;19.80;;;;;;;-141.02;73.46;42619.00;5133149;27;20229;-63
2023/08/05 02:00:14;;;;;;;21.13;20.13;;;;;;;-141.02;73.58;42617.09;5132662;28;20223;-62
2023/08/05 02:02:41;;;;;;;21.25;20.25;;;;;;;-141.02;73.70;42609.41;5132705;28;20304;-63
2023/08/05 02:05:09;;;;;;;20.80;19.80;;;;;;;-141.02;74.22;42628.63;5132743;28;20188;-63
2023/08/05 02:07:35;;;;;;;20.65;19.65;;;;;;;-141.02;74.44;42619.00;5132964;28;20241;-62
2023/08/05 02:10:03;;;;;;;20.80;19.80;;;;;;;-141.02;74.58;42632.44;5132940;28;20231;-63
2023/08/05 02:12:29;;;;;;;19.75;18.75;;;;;;;-141.02;74.70;42628.63;5132926;27;20197;-64
2023/08/05 02:15:02;;;;;;;20.85;19.85;;;;;;;-141.02;74.71;42613.25;5132619;28;20197;-63
2023/08/05 02:17:30;;;;;;;20.60;19.60;;;;;;;-141.02;75.05;42622.84;5134306;27;20196;-63
2023/08/05 02:19:57;;;;;;;20.50;19.50;;;;;;;-141.02;75.13;42613.25;5136511;27;20267;-62
2023/08/05 02:22:25;;;;;;;20.08;19.08;;;;;;;-141.02;75.25;42642.03;5136453;27;20192;-66
2023/08/05 02:24:52;;;;;;;19.73;18.73;;;;;;;-141.02;75.62;42617.09;5136466;27;20198;-62
2023/08/05 02:27:19;;;;;;;20.38;19.38;;;;;;;-141.02;75.75;42619.00;5136850;27;20189;-62
2023/08/05 02:29:46;;;;;;;19.67;18.70;;;;;;;-141.02;75.34;42632.44;5136691;27;20196;-62
2023/08/05 02:32:13;;;;;;;20.15;19.15;;;;;;;-141.02;75.64;42590.22;5137447;27;20234;-63
2023/08/05 02:34:42;;;;;;;19.60;18.70;;;;;;;-141.02;75.97;42607.50;5136613;27;20275;-63
2023/08/05 02:37:09;;;;;;;19.88;18.88;;;;;;;-141.02;76.23;42628.63;5136597;27;20223;-63
2023/08/05 02:39:36;;;;;;;19.75;18.85;;;;;;;-141.02;76.23;42609.41;5136419;27;20220;-66
2023/08/05 02:42:04;;;;;;;19.77;18.88;;;;;;;-141.02;76.33;42597.91;5136207;27;20662;-62
2023/08/05 02:44:30;;;;;;;19.80;18.90;;;;;;;-141.02;76.51;42594.06;5136267;27;20304;-63
2023/08/05 02:46:57;;;;;;;20.58;19.58;;;;;;;-141.02;76.68;42605.56;5136334;27;20220;-63
2023/08/05 02:49:24;;;;;;;20.20;19.20;;;;;;;-141.02;76.60;42615.16;5136390;27;20200;-62
2023/08/05 02:51:53;;;;;;;19.40;18.50;;;;;;;-141.02;76.69;42613.25;5136216;27;20647;-62
2023/08/05 02:54:20;;;;;;;19.27;18.38;;;;;;;-141.02;76.92;42603.66;5136006;27;20716;-62
2023/08/05 02:56:47;;;;;;;19.23;18.33;;;;;;;-141.02;77.00;42615.16;5135869;27;20199;-63
2023/08/05 02:59:14;;;;;;;19.38;18.48;;;;;;;-141.02;76.89;42636.28;5136091;27;20228;-64
2023/08/05 03:01:40;;;;;;;19.35;18.45;;;;;;;-141.02;76.90;42643.97;5136181;27;20195;-63
2023/08/05 03:04:07;;;;;;;19.77;18.88;;;;;;;-141.02;76.58;42680.44;5135701;27;20291;-62
2023/08/05 03:06:34;;;;;;;20.60;19.60;;;;;;;-141.02;76.71;42678.53;5135759;27;20188;-62
2023/08/05 03:09:02;;;;;;;20.40;19.40;;;;;;;-141.02;76.58;42736.13;5135681;27;20192;-63
2023/08/05 03:11:31;;;;;;;20.17;19.17;;;;;;;-141.02;77.15;42782.19;5135597;27;20746;-63
2023/08/05 03:13:58;;;;;;;20.35;19.35;;;;;;;-141.02;77.15;42828.25;5135563;27;20207;-63
2023/08/05 03:16:25;;;;;;;20.65;19.65;;;;;;;-141.02;77.09;42849.38;5135800;27;20272;-62
2023/08/05 03:19:02;;;;;;;18.98;18.08;;;;;;;-141.02;76.92;42889.69;5135887;27;20197;-63
2023/08/05 03:21:30;;;;;;;18.63;17.73;;;;;;;-141.02;77.32;42928.09;5135214;27;20303;-63
2023/08/05 03:23:57;;;;;;;19.85;18.90;;;;;;;-141.02;77.37;42941.53;5135773;27;20265;-62
2023/08/05 03:26:25;;;;;;;18.88;17.98;;;;;;;-141.02;77.66;42979.91;5135587;27;20192;-62
2023/08/05 03:28:52;;;;;;;19.92;19.02;;;;;;;-141.02;78.03;43006.81;5135248;27;20227;-64
2023/08/05 03:31:19;;;;;;;19.67;18.77;;;;;;;-141.02;78.22;43054.78;5135236;27;20235;-62
2023/08/05 03:34:35;;;;;;;19.77;18.88;;;;;;;-141.02;77.90;43083.59;5135172;27;20682;-62
2023/08/05 03:37:09;;;;;;;19.40;18.50;;;;;;;-141.02;77.79;43091.28;5135175;27;20220;-62
2023/08/05 03:40:02;;;;;;;19.10;18.30;;;;;;;-141.02;78.13;43112.41;5135223;27;20646;-62
2023/08/05 03:42:31;;;;;;;18.45;17.65;;;;;;;-141.02;78.26;43141.19;5134995;27;20553;-62
2023/08/05 03:44:58;;;;;;;19.08;18.27;;;;;;;-141.02;78.26;43154.63;5134849;27;20270;-62
2023/08/05 03:47:25;;;;;;;20.42;19.52;;;;;;;-141.02;78.38;43204.56;5135278;27;20253;-62
2023/08/05 03:49:52;;;;;;;20.10;19.20;;;;;;;-141.02;78.40;43227.59;5135151;27;20199;-62
2023/08/05 03:52:19;;;;;;;20.52;19.63;;;;;;;-141.02;78.24;43300.56;5134744;27;20288;-62
2023/08/05 03:54:46;;;;;;;19.55;18.65;;;;;;;-141.02;77.86;43433.03;5135079;27;20224;-65
2023/08/05 03:57:18;;;;;;;19.23;18.42;;;;;;;-141.02;76.95;43448.41;5135044;27;20188;-64
2023/08/05 04:03:43;;;;;;;19.35;18.55;;;;;;;-141.02;75.61;43448.41;5134683;27;20245;-64
2023/08/05 04:06:29;;;;;;;20.17;19.27;;;;;;;-141.02;75.12;43511.75;5134540;27;20196;-64
2023/08/05 04:09:20;;;;;;;20.40;19.50;;;;;;;-141.02;74.48;43523.28;5134552;27;20283;-64
2023/08/05 04:12:40;;;;;;;20.73;19.83;;;;;;;-141.02;74.32;43534.78;5134471;27;20196;-66
2023/08/05 04:22:30;;;;;;;19.73;18.77;;;;;;;-141.02;71.99;43523.28;5134702;27;20241;-64
2023/08/05 04:25:41;;;;;;;20.38;19.38;;;;;;;-141.02;71.79;43538.63;5134254;27;20722;-65
2023/08/05 04:28:31;;;;;;;20.15;19.25;;;;;;;-141.02;71.47;43569.34;5134080;27;20661;-64
2023/08/05 04:34:23;;;;;;;20.77;19.77;;;;;;;-141.02;70.88;43617.38;5134035;27;20199;-66
2023/08/05 04:37:46;;;;;;;19.98;19.08;;;;;;;-141.02;70.47;43575.13;5134259;27;20268;-64
2023/08/05 04:40:42;;;;;;;19.90;18.90;;;;;;;-141.02;70.11;43573.19;5133101;27;20621;-64
2023/08/05 04:43:47;;;;;;;19.70;18.80;;;;;;;-141.02;69.95;43577.03;5134275;27;20746;-65
2023/08/05 04:46:37;;;;;;;20.13;19.13;;;;;;;-141.02;69.33;43592.41;5123413;27;20232;-71
2023/08/05 04:49:24;;;;;;;19.80;18.90;;;;;;;-141.02;68.65;43578.97;5133944;27;20193;-64
2023/08/05 04:52:22;;;;;;;20.20;19.20;;;;;;;-141.02;68.80;43623.13;5133705;27;20274;-65
2023/08/05 04:54:51;;;;;;;19.80;18.90;;;;;;;-141.02;68.30;43584.72;5133838;27;20616;-64
2023/08/05 04:57:18;;;;;;;20.20;19.20;;;;;;;-141.02;68.03;43596.25;5133871;27;20632;-64
2023/08/05 05:00:19;;;;;;;18.90;18.00;;;;;;;-141.02;67.91;43594.31;5133764;27;20228;-64
2023/08/05 05:02:48;;;;;;;19.75;18.85;;;;;;;-141.02;67.73;43600.09;5133874;27;20736;-65
2023/08/05 05:05:15;;;;;;;19.85;18.95;;;;;;;-141.02;67.26;43611.59;5133734;27;20730;-65
2023/08/05 05:07:42;;;;;;;19.15;18.25;;;;;;;-141.02;67.16;43640.41;5133712;27;20608;-64
2023/08/05 05:10:10;;;;;;;20.08;19.08;;;;;;;-141.02;67.52;43623.13;5133295;27;20196;-64
2023/08/05 05:12:37;;;;;;;19.27;18.38;;;;;;;-141.02;67.62;43625.03;5133316;27;20249;-64
2023/08/05 05:15:05;;;;;;;19.33;18.42;;;;;;;-141.02;67.67;43621.22;5133396;27;20296;-65
2023/08/05 05:17:36;;;;;;;19.13;18.23;;;;;;;-141.02;67.06;43636.56;5133483;27;20581;-64
2023/08/05 05:20:04;;;;;;;19.25;18.35;;;;;;;-141.02;67.38;43642.31;5133201;27;20698;-65
2023/08/05 05:22:31;;;;;;;19.50;18.60;;;;;;;-141.02;67.79;43530.97;5133448;27;20196;-65
2023/08/05 05:24:59;;;;;;;19.40;18.50;;;;;;;-141.02;67.81;43625.03;5133191;27;20245;-64
2023/08/05 05:27:26;;;;;;;19.33;18.42;;;;;;;-141.02;67.58;43623.13;5133332;27;20197;-64
2023/08/05 05:29:53;;;;;;;19.40;18.50;;;;;;;-141.02;67.87;43623.13;5133418;27;20188;-64
2023/08/05 05:32:20;;;;;;;19.55;18.65;;;;;;;-141.02;67.98;43651.94;5133083;27;20253;-65
2023/08/05 05:34:49;;;;;;;19.60;18.70;;;;;;;-141.02;67.40;43644.25;5133182;27;20620;-66
2023/08/05 05:37:16;;;;;;;19.40;18.50;;;;;;;-141.02;67.58;43626.97;5133265;27;20196;-64
2023/08/05 05:39:44;;;;;;;18.98;18.08;;;;;;;-141.02;67.99;43642.31;5132835;28;20196;-65
2023/08/05 05:42:11;;;;;;;19.10;18.20;;;;;;;-141.02;68.01;43623.13;5133010;28;20228;-64
2023/08/05 05:44:38;;;;;;;19.10;18.20;;;;;;;-141.02;66.80;43634.66;5132835;28;20204;-65
2023/08/05 05:47:07;;;;;;;19.45;18.55;;;;;;;-141.02;67.05;43619.28;5132695;28;20259;-65
2023/08/05 05:49:34;;;;;;;18.83;17.92;;;;;;;-141.02;67.08;43626.97;5132870;28;20235;-65
2023/08/05 05:52:03;;;;;;;18.98;18.08;;;;;;;-141.02;66.37;43615.44;5135890;27;20199;-65
2023/08/05 05:54:30;;;;;;;18.85;17.95;;;;;;;-141.02;66.54;43638.50;5137102;27;20650;-65
2023/08/05 05:56:57;;;;;;;18.85;17.95;;;;;;;-141.02;66.27;43615.44;5137401;27;20218;-65
2023/08/05 05:59:24;;;;;;;18.85;17.95;;;;;;;-141.02;66.26;43613.53;5137287;27;20196;-65
2023/08/05 06:01:51;;;;;;;19.25;18.35;;;;;;;-141.02;66.60;43615.44;5136890;27;20220;-68
2023/08/05 06:04:18;;;;;;;19.13;18.23;;;;;;;-141.02;66.10;43625.03;5136952;27;20735;-66
2023/08/05 06:06:45;;;;;;;19.20;18.30;;;;;;;-141.02;66.13;43602.00;5137003;27;20701;-65
2023/08/05 06:09:15;;;;;;;18.35;17.55;;;;;;;-141.02;64.96;43636.56;5137197;27;20204;-66
2023/08/05 06:11:42;;;;;;;28.13;26.67;;;;;;;-141.02;65.29;43638.50;5136743;27;20609;-64
2023/08/05 06:14:09;;;;;;;18.48;17.58;;;;;;;-141.02;66.25;43646.16;5136764;27;20188;-65
2023/08/05 06:16:36;;;;;;;19.33;18.42;;;;;;;-141.02;65.54;43615.44;5137057;27;20232;-65
2023/08/05 06:19:03;;;;;;;19.20;18.30;;;;;;;-141.02;65.58;43603.94;5136575;27;20569;-65
2023/08/05 06:21:30;;;;;;;19.40;18.50;;;;;;;-141.02;65.55;43619.28;5136469;27;20219;-65
2023/08/05 06:23:57;;;;;;;18.92;18.10;;;;;;;-141.02;64.74;43611.59;5136896;27;20203;-65
2023/08/05 06:26:26;;;;;;;19.25;18.35;;;;;;;-141.02;64.68;43623.13;5136878;27;20243;-65
2023/08/05 06:28:53;;;;;;;19.10;18.20;;;;;;;-141.02;64.39;43621.22;5136319;27;20313;-65
2023/08/05 06:31:20;;;;;;;18.25;17.45;;;;;;;-141.02;63.94;43615.44;5136289;27;20192;-66
2023/08/05 06:33:47;;;;;;;19.30;18.40;;;;;;;-141.02;64.52;43615.44;5136692;27;20265;-65
2023/08/05 06:36:14;;;;;;;19.30;18.40;;;;;;;-141.02;63.52;43623.13;5136597;27;20249;-65
2023/08/05 06:38:41;;;;;;;18.73;17.83;;;;;;;-141.02;63.58;43615.44;5136201;27;20188;-65
2023/08/05 06:41:08;;;;;;;19.70;18.80;;;;;;;-141.02;63.74;43609.69;5136491;27;20224;-65
2023/08/05 06:43:36;;;;;;;18.85;17.95;;;;;;;-141.02;64.19;43626.97;5136467;27;20220;-65
2023/08/05 06:46:03;;;;;;;18.88;17.98;;;;;;;-141.02;63.42;43619.28;5135919;27;20235;-65
2023/08/05 06:48:30;;;;;;;19.10;18.20;;;;;;;-141.02;63.93;43619.28;5136176;27;20245;-66
2023/08/05 06:50:57;;;;;;;19.05;18.13;;;;;;;-141.02;63.08;43630.81;5136337;27;20196;-65
2023/08/05 06:53:25;;;;;;;19.13;18.23;;;;;;;-141.02;63.49;43600.09;5136305;27;20196;-65
2023/08/05 06:56:01;;;;;;;19.33;18.33;;;;;;;-141.02;63.05;43613.53;5135960;27;20193;-64
2023/08/05 06:58:28;;;;;;;18.48;17.58;;;;;;;-141.02;62.47;43615.44;5136269;27;20184;-65
2023/08/05 07:00:57;;;;;;;18.45;17.55;;;;;;;-141.02;63.03;43640.41;5136095;27;20231;-66
2023/08/05 07:03:24;;;;;;;18.65;17.75;;;;;;;-141.02;63.34;43621.22;5135444;27;20200;-73
2023/08/05 07:05:55;;;;;;;19.00;18.10;;;;;;;-141.02;63.05;43619.28;5136067;27;20220;-65
2023/08/05 07:08:23;;;;;;;19.60;18.65;;;;;;;-141.02;61.45;43665.38;5135769;27;20650;-66
2023/08/05 07:10:54;;;;;;;19.35;18.35;;;;;;;-141.02;62.08;43636.56;5136003;27;20227;-65
2023/08/05 07:13:21;;;;;;;19.45;18.45;;;;;;;-141.02;61.74;43665.38;5135558;27;20688;-66
2023/08/05 07:15:48;;;;;;;19.20;18.20;;;;;;;-141.02;62.05;43650.00;5135604;27;20192;-66
2023/08/05 07:18:17;;;;;;;18.95;18.05;;;;;;;-141.02;62.47;43669.22;5135867;27;20224;-65
2023/08/05 07:20:44;;;;;;;18.90;18.00;;;;;;;-141.02;61.81;43650.00;5135369;27;20224;-65
2023/08/05 07:23:11;;;;;;;18.80;17.90;;;;;;;-141.02;61.86;43676.91;5135454;27;20197;-65
2023/08/05 07:25:38;;;;;;;18.15;17.30;;;;;;;-141.02;61.10;43680.72;5135666;27;20197;-65
2023/08/05 07:28:05;;;;;;;18.58;17.67;;;;;;;-141.02;60.17;43673.06;5135350;27;20235;-65
2023/08/05 07:30:32;;;;;;;18.60;17.70;;;;;;;-141.02;60.52;43671.13;5135912;27;20263;-66
2023/08/05 07:32:59;;;;;;;18.75;17.85;;;;;;;-141.02;60.73;43667.28;5135645;27;20231;-66
2023/08/05 07:35:29;;;;;;;19.13;18.15;;;;;;;-141.02;60.42;43694.19;5135464;27;20192;-66
2023/08/05 07:37:56;;;;;;;19.08;18.08;;;;;;;-141.02;59.65;43699.94;5135136;27;20662;-65
2023/08/05 07:40:23;;;;;;;19.13;18.23;;;;;;;-141.02;59.53;43698.00;5135454;27;20200;-65
2023/08/05 07:42:52;;;;;;;19.00;18.00;;;;;;;-141.02;59.70;43736.41;5135385;27;20228;-65
2023/08/05 07:45:21;;;;;;;18.88;17.98;;;;;;;-141.02;59.47;43722.97;5135120;27;20196;-66
2023/08/05 07:47:48;;;;;;;19.10;18.10;;;;;;;-141.02;60.42;43715.28;5134920;27;20642;-65
2023/08/05 07:50:16;;;;;;;19.10;18.10;;;;;;;-141.02;59.98;43728.75;5135244;27;20192;-66
2023/08/05 07:52:45;;;;;;;19.05;18.05;;;;;;;-141.02;58.27;43742.19;5135145;27;20279;-66
2023/08/05 07:55:12;;;;;;;19.20;18.20;;;;;;;-141.02;59.34;43746.03;5134825;27;20196;-66
2023/08/05 07:57:40;;;;;;;19.10;18.10;;;;;;;-141.02;58.56;43738.34;5134820;27;20695;-66
2023/08/05 08:00:09;;;;;;;19.00;18.00;;;;;;;-141.02;58.24;43759.47;5135025;27;20200;-66
2023/08/05 08:02:38;;;;;;;19.08;18.08;;;;;;;-141.02;59.03;43765.22;5134596;27;20228;-66
2023/08/05 08:05:07;;;;;;;18.92;17.92;;;;;;;-141.02;58.48;43769.06;5134612;27;20199;-65
2023/08/05 08:07:34;;;;;;;18.73;17.73;;;;;;;-141.02;58.22;43757.53;5134601;27;20709;-65
2023/08/05 08:10:03;;;;;;;18.85;17.85;;;;;;;-141.02;58.07;43803.63;5134777;27;20193;-66
2023/08/05 08:12:30;;;;;;;18.77;17.77;;;;;;;-141.02;58.00;43807.47;5134517;27;20689;-66
2023/08/05 08:14:57;;;;;;;18.77;17.77;;;;;;;-141.02;57.59;43819.00;5133714;27;20237;-66
2023/08/05 08:17:24;;;;;;;18.95;17.95;;;;;;;-141.02;57.63;43819.00;5134384;27;20226;-66
2023/08/05 08:19:51;;;;;;;19.55;18.55;;;;;;;-141.02;56.88;43803.63;5134655;27;20221;-65
2023/08/05 08:22:18;;;;;;;20.00;19.00;;;;;;;-141.02;56.55;43842.03;5134082;27;20286;-66
2023/08/05 08:24:45;;;;;;;19.90;18.90;;;;;;;-141.02;56.69;43809.38;5134572;27;20215;-65
2023/08/05 08:27:13;;;;;;;19.77;18.77;;;;;;;-141.02;56.76;43857.41;5134427;27;20196;-66
2023/08/05 08:29:40;;;;;;;19.73;18.75;;;;;;;-141.02;56.25;43838.19;5134168;27;20282;-65
2023/08/05 08:32:08;;;;;;;19.48;18.58;;;;;;;-141.02;55.77;43845.88;5134322;27;20620;-67
2023/08/05 08:34:35;;;;;;;19.10;18.20;;;;;;;-141.02;55.86;43824.75;5134053;27;20199;-66
2023/08/05 08:37:02;;;;;;;19.27;18.38;;;;;;;-141.02;55.37;43849.72;5134380;27;20227;-66
2023/08/05 08:39:29;;;;;;;19.67;18.70;;;;;;;-141.02;55.59;43872.75;5134262;27;20579;-66
2023/08/05 08:41:56;;;;;;;19.60;18.65;;;;;;;-141.02;55.00;43888.13;5133782;27;20259;-66
2023/08/05 08:44:27;;;;;;;19.85;18.85;;;;;;;-141.02;54.65;43884.28;5133895;27;20737;-66
2023/08/05 08:46:55;;;;;;;18.85;17.95;;;;;;;-141.02;54.12;43891.97;5133706;27;20224;-66
2023/08/05 08:49:22;;;;;;;18.52;17.63;;;;;;;-141.02;54.47;43886.19;5133714;27;20701;-66
2023/08/05 08:51:51;;;;;;;18.88;17.88;;;;;;;-141.02;54.67;43899.66;5133720;27;20204;-66
2023/08/05 08:54:20;;;;;;;19.27;18.27;;;;;;;-141.02;54.87;43884.28;5134026;27;20268;-66
2023/08/05 08:56:47;;;;;;;19.05;18.05;;;;;;;-141.02;54.64;43891.97;5133601;27;20617;-67
2023/08/05 08:59:14;;;;;;;18.48;17.48;;;;;;;-141.02;53.95;43922.69;5133513;27;20199;-66
2023/08/05 09:01:44;;;;;;;18.85;17.85;;;;;;;-141.02;53.59;43976.47;5133476;27;20259;-66
2023/08/05 09:04:12;;;;;;;18.45;17.45;;;;;;;-141.02;53.57;43984.16;5133519;27;20197;-67
2023/08/05 09:06:40;;;;;;;18.40;17.40;;;;;;;-141.02;52.88;43980.31;5133784;27;20214;-66
2023/08/05 09:09:07;;;;;;;18.60;17.60;;;;;;;-141.02;53.34;43963.03;5133410;27;20188;-66
2023/08/05 09:11:34;;;;;;;18.40;17.40;;;;;;;-141.02;53.44;43951.50;5133801;27;20189;-66
2023/08/05 09:14:03;;;;;;;18.98;17.98;;;;;;;-141.02;53.07;43966.84;5133342;27;20226;-67
2023/08/05 09:16:30;;;;;;;18.67;17.77;;;;;;;-141.02;52.88;44018.72;5133562;27;20204;-66
2023/08/05 09:19:00;;;;;;;18.27;17.33;;;;;;;-141.02;52.58;44018.72;5133607;27;20252;-68
2023/08/05 09:21:28;;;;;;;18.33;17.35;;;;;;;-141.02;51.63;44034.06;5133116;27;20224;-69
2023/08/05 09:23:56;;;;;;;18.33;17.33;;;;;;;-141.02;52.29;44026.38;5133515;27;20272;-66
2023/08/05 09:26:28;;;;;;;18.70;17.70;;;;;;;-141.02;52.39;43980.31;5132829;27;20192;-66
2023/08/05 09:28:56;;;;;;;18.50;17.50;;;;;;;-141.02;52.63;44041.75;5133509;27;20199;-66
2023/08/05 09:31:23;;;;;;;18.65;17.65;;;;;;;-141.02;52.35;44045.59;5133117;27;20257;-66
2023/08/05 09:33:50;;;;;;;18.73;17.83;;;;;;;-141.02;51.68;44059.03;5133386;27;20228;-67
2023/08/05 09:36:22;;;;;;;18.60;17.70;;;;;;;-141.02;51.83;44049.44;5133072;27;20227;-66
2023/08/05 09:39:03;;;;;;;83.03;78.70;;;;;;;-141.02;51.09;44034.06;5133320;27;20196;-67
2023/08/05 09:41:31;;;;;;;86.10;81.50;;;;;;;-141.02;51.86;44047.50;5132890;28;20212;-67
2023/08/05 09:43:59;;;;;;;59.78;56.38;;;;;;;-141.02;51.86;44070.56;5132937;28;20196;-66
2023/08/05 09:46:32;;;;;;;18.55;17.55;;;;;;;-141.02;51.06;44080.16;5132771;28;20708;-67
2023/08/05 09:49:00;;;;;;;18.55;17.55;;;;;;;-141.02;51.23;44120.50;5132982;28;20703;-67
2023/08/05 09:51:29;;;;;;;18.65;17.65;;;;;;;-141.02;50.76;44220.38;5132978;27;20201;-66
2023/08/05 09:53:58;;;;;;;18.42;17.42;;;;;;;-141.02;50.73;44122.41;5133112;27;20192;-66
2023/08/05 09:56:26;;;;;;;18.55;17.55;;;;;;;-141.02;50.79;44110.88;5133127;28;20192;-68
2023/08/05 09:58:54;;;;;;;18.95;17.95;;;;;;;-141.02;50.62;44191.56;5132816;28;20282;-67
2023/08/05 10:01:22;;;;;;;25.95;24.65;;;;;;;-141.02;51.08;44187.72;5133002;28;20196;-67
2023/08/05 10:03:50;;;;;;;18.10;17.20;;;;;;;-141.02;50.29;44064.81;5133018;28;20241;-67
2023/08/05 10:06:18;;;;;;;20.23;19.23;;;;;;;-141.02;51.13;44107.06;5132737;28;20577;-66
2023/08/05 10:08:48;;;;;;;18.88;17.98;;;;;;;-141.02;50.73;44099.38;5133039;28;20228;-66
2023/08/05 10:11:15;;;;;;;18.48;17.63;;;;;;;-141.02;50.28;44166.59;5132926;28;20196;-67
2023/08/05 10:13:46;;;;;;;18.90;18.00;;;;;;;-141.02;50.28;44166.59;5132749;27;20575;-67
2023/08/05 10:16:14;;;;;;;18.42;17.52;;;;;;;-141.02;49.46;44218.44;5132999;27;20191;-67
2023/08/05 10:18:41;;;;;;;18.33;17.42;;;;;;;-141.02;49.66;44287.59;5132862;28;20197;-67
2023/08/05 10:21:09;;;;;;;18.42;17.52;;;;;;;-141.02;48.73;44291.41;5132893;28;20391;-67
2023/08/05 10:23:36;;;;;;;18.17;17.27;;;;;;;-141.02;49.60;44229.97;5132547;27;20231;-65
2023/08/05 10:26:06;;;;;;;18.45;17.55;;;;;;;-141.02;48.80;44256.84;5132875;28;20219;-65
2023/08/05 10:28:45;;;;;;;17.90;17.00;;;;;;;-141.02;49.17;44222.28;5132484;28;20189;-64
2023/08/05 10:31:28;;;;;;;18.85;17.95;;;;;;;-141.02;48.97;44326.00;5132944;27;20188;-65
2023/08/05 10:34:18;;;;;;;18.60;17.70;;;;;;;-141.02;48.13;44437.38;5132588;27;20225;-66
2023/08/05 10:36:47;;;;;;;18.88;17.98;;;;;;;-141.02;48.59;44337.50;5132758;27;20184;-65
2023/08/05 10:39:42;;;;;;;18.67;17.77;;;;;;;-141.02;49.92;44172.34;5135292;27;20241;-65
2023/08/05 10:42:21;;;;;;;18.92;18.02;;;;;;;-141.02;49.09;44289.50;5136162;27;20232;-64
2023/08/05 10:44:54;;;;;;;18.20;17.30;;;;;;;-141.02;48.76;44299.09;5136420;27;20195;-65
2023/08/05 10:47:22;;;;;;;23.63;22.25;;;;;;;-141.02;49.43;44249.16;5136100;27;20259;-65
2023/08/05 10:49:51;;;;;;;18.02;17.23;;;;;;;-141.02;50.06;44264.53;5136095;27;20646;-65
2023/08/05 10:52:21;;;;;;;19.17;18.27;;;;;;;-141.02;49.33;44310.63;5136365;27;20610;-64
2023/08/05 10:54:49;;;;;;;19.10;18.20;;;;;;;-141.02;48.86;44383.59;5135984;27;20192;-64
2023/08/05 10:57:47;;;;;;;19.48;18.48;;;;;;;-141.02;48.45;44337.50;5136003;27;20196;-65
2023/08/05 11:00:21;;;;;;;18.83;17.92;;;;;;;-141.02;48.88;44343.28;5135908;27;20712;-65
2023/08/05 11:02:49;;;;;;;19.42;18.42;;;;;;;-141.02;48.64;44370.16;5135795;27;21335;-65
2023/08/05 11:05:17;;;;;;;19.58;18.58;;;;;;;-141.02;48.53;44385.53;5135821;27;20188;-64
2023/08/05 11:07:44;;;;;;;19.50;18.50;;;;;;;-141.02;48.29;44341.34;5136152;27;20196;-65
2023/08/05 11:10:13;;;;;;;30.92;29.35;;;;;;;-141.02;48.35;44422.03;5135670;27;20192;-65
2023/08/05 11:12:40;;;;;;;19.20;18.20;;;;;;;-141.02;48.74;44422.03;5135664;27;20203;-65
2023/08/05 11:15:09;;;;;;;24.13;22.90;;;;;;;-141.02;48.69;44458.50;5135937;27;20192;-65
2023/08/05 11:17:55;;;;;;;37.72;35.72;;;;;;;-141.02;48.72;44253.00;5135545;27;20214;-65
2023/08/05 11:20:31;;;;;;;37.53;35.53;;;;;;;-141.02;48.64;44256.84;5135749;27;20184;-64
2023/08/05 11:22:58;;;;;;;36.13;34.22;;;;;;;-141.02;49.20;44310.63;5135729;27;20216;-65
2023/08/05 11:25:25;;;;;;;19.02;17.92;;;;;;;-141.02;49.40;44268.38;5135402;27;20218;-67
2023/08/05 11:27:54;;;;;;;18.98;17.88;;;;;;;-141.02;48.88;44327.91;5135656;27;20196;-67
2023/08/05 11:30:22;;;;;;;18.80;17.80;;;;;;;-141.02;48.99;44295.25;5135204;27;20740;-67